createdAt,value
2022-07-25T00:01:59.461Z,3.22
2022-07-25T00:04:27.832Z,3.20
2022-07-25T00:07:06.483Z,3.50
2022-07-25T00:09:38.578Z,3.10
2022-07-25T00:12:06.135Z,3.13
2022-07-25T00:14:34.618Z,3.20
2022-07-25T00:17:06.617Z,3.40
2022-07-25T00:19:33.741Z,3.13
2022-07-25T00:22:00.923Z,3.25
2022-07-25T00:24:28.069Z,3.70
2022-07-25T00:26:55.360Z,4.00
2022-07-25T00:29:22.422Z,4.78
2022-07-25T00:31:49.822Z,4.32
2022-07-25T00:34:16.889Z,4.38
2022-07-25T00:36:43.941Z,4.45
2022-07-25T00:39:10.931Z,3.80
2022-07-25T00:41:38.053Z,3.97
2022-07-25T00:44:05.756Z,4.65
2022-07-25T00:46:33.298Z,4.22
2022-07-25T00:49:03.643Z,4.10
2022-07-25T00:51:30.986Z,4.53
2022-07-25T00:53:58.328Z,4.38
2022-07-25T00:56:25.394Z,4.55
2022-07-25T00:58:52.556Z,5.20
2022-07-25T01:01:19.697Z,5.35
2022-07-25T01:03:46.778Z,5.90
2022-07-25T01:06:15.326Z,5.10
2022-07-25T01:08:43.001Z,5.18
2022-07-25T01:11:11.020Z,5.90
2022-07-25T01:13:38.521Z,5.45
2022-07-25T01:16:06.425Z,5.80
2022-07-25T01:18:37.655Z,6.70
2022-07-25T01:21:05.383Z,6.70
2022-07-25T01:23:32.505Z,6.55
2022-07-25T01:25:59.640Z,6.93
2022-07-25T01:28:27.698Z,7.55
2022-07-25T01:30:54.804Z,7.53
2022-07-25T01:33:22.677Z,7.63
2022-07-25T01:35:50.656Z,7.78
2022-07-25T01:38:18.025Z,7.65
2022-07-25T01:40:45.459Z,6.95
2022-07-25T01:43:12.759Z,8.00
2022-07-25T01:45:39.780Z,7.40
2022-07-25T01:48:07.076Z,7.47
2022-07-25T01:50:34.684Z,7.15
2022-07-25T01:53:01.842Z,8.13
2022-07-25T01:55:29.888Z,7.57
2022-07-25T01:57:58.185Z,7.82
2022-07-25T02:00:25.326Z,7.72
2022-07-25T02:03:12.301Z,8.05
2022-07-25T02:05:39.490Z,8.27
2022-07-25T02:08:06.557Z,8.15
2022-07-25T02:10:33.862Z,8.27
2022-07-25T02:13:04.204Z,9.23
2022-07-25T02:15:31.308Z,8.30
2022-07-25T02:17:58.426Z,9.20
2022-07-25T02:20:25.483Z,9.32
2022-07-25T02:23:10.120Z,8.25
2022-07-25T02:25:39.220Z,8.82
2022-07-25T02:28:06.283Z,7.80
2022-07-25T02:30:33.404Z,8.80
2022-07-25T02:33:00.509Z,8.23
2022-07-25T02:35:27.545Z,8.60
2022-07-25T02:37:54.740Z,8.65
2022-07-25T02:40:22.174Z,7.70
2022-07-25T02:42:49.357Z,8.63
2022-07-25T02:45:16.357Z,8.45
2022-07-25T02:47:43.427Z,8.88
2022-07-25T02:50:14.924Z,8.82
2022-07-25T02:52:43.440Z,9.23
2022-07-25T02:55:11.821Z,9.30
2022-07-25T02:57:38.982Z,8.95
2022-07-25T03:00:08.398Z,8.43
2022-07-25T03:02:37.726Z,9.25
2022-07-25T03:07:50.798Z,8.77
2022-07-25T03:10:18.094Z,9.48
2022-07-25T03:12:45.495Z,9.77
2022-07-25T03:15:14.046Z,9.43
2022-07-25T03:17:42.134Z,9.30
2022-07-25T03:20:10.030Z,9.98
2022-07-25T03:22:37.411Z,9.25
2022-07-25T03:25:05.380Z,9.95
2022-07-25T03:27:42.409Z,10.23
2022-07-25T03:30:35.181Z,9.80
2022-07-25T03:33:02.224Z,10.77
2022-07-25T03:35:29.243Z,10.38
2022-07-25T03:37:56.311Z,10.30
2022-07-25T03:40:23.361Z,10.85
2022-07-25T03:42:50.385Z,10.90
2022-07-25T03:45:17.882Z,10.95
2022-07-25T03:47:45.051Z,11.10
2022-07-25T03:50:12.356Z,10.85
2022-07-25T03:52:39.645Z,11.48
2022-07-25T03:55:10.110Z,11.52
2022-07-25T03:57:41.045Z,10.93
2022-07-25T04:00:10.183Z,11.07
2022-07-25T04:02:38.116Z,10.98
2022-07-25T04:05:07.356Z,11.63
2022-07-25T04:07:35.901Z,11.23
2022-07-25T04:10:05.950Z,10.65
2022-07-25T04:12:33.389Z,11.13
2022-07-25T04:15:00.428Z,11.55
2022-07-25T04:17:27.506Z,11.43
2022-07-25T04:19:58.200Z,10.88
2022-07-25T04:22:25.246Z,11.20
2022-07-25T04:24:52.333Z,10.73
2022-07-25T04:27:19.317Z,11.20
2022-07-25T04:29:46.405Z,11.10
2022-07-25T04:32:14.787Z,10.68
2022-07-25T04:34:43.735Z,10.13
2022-07-25T04:37:14.471Z,11.20
2022-07-25T04:39:41.539Z,9.80
2022-07-25T04:42:08.656Z,10.45
2022-07-25T04:44:35.783Z,11.18
2022-07-25T04:47:02.815Z,11.45
2022-07-25T04:49:29.994Z,11.40
2022-07-25T04:51:57.187Z,11.13
2022-07-25T04:54:24.230Z,11.65
2022-07-25T04:56:51.216Z,11.60
2022-07-25T04:59:18.227Z,11.77
2022-07-25T05:02:11.160Z,12.35
2022-07-25T05:04:43.364Z,12.07
2022-07-25T05:07:12.298Z,12.13
2022-07-25T05:09:42.499Z,12.13
2022-07-25T05:12:10.121Z,11.52
2022-07-25T05:14:38.412Z,12.40
2022-07-25T05:17:06.576Z,12.93
2022-07-25T05:19:33.645Z,12.88
2022-07-25T05:22:00.834Z,13.10
2022-07-25T05:24:28.013Z,12.63
2022-07-25T05:26:55.057Z,12.23
2022-07-25T05:29:36.364Z,12.55
2022-07-25T05:32:03.730Z,12.95
2022-07-25T05:34:30.950Z,12.50
2022-07-25T05:36:58.160Z,12.10
2022-07-25T05:39:25.178Z,12.95
2022-07-25T05:41:53.209Z,12.15
2022-07-25T05:44:20.275Z,12.25
2022-07-25T05:46:47.352Z,11.30
2022-07-25T05:49:15.984Z,12.00
2022-07-25T05:51:43.060Z,11.15
2022-07-25T05:54:10.373Z,11.43
2022-07-25T05:56:37.461Z,12.25
2022-07-25T05:59:04.687Z,11.80
2022-07-25T06:01:31.807Z,11.68
2022-07-25T06:03:58.910Z,12.57
2022-07-25T06:06:25.985Z,12.15
2022-07-25T06:08:53.004Z,11.75
2022-07-25T06:11:21.325Z,12.25
2022-07-25T06:13:48.555Z,11.93
2022-07-25T06:16:15.729Z,11.05
2022-07-25T06:18:42.736Z,11.52
2022-07-25T06:21:09.883Z,10.88
2022-07-25T06:23:37.077Z,11.75
2022-07-25T06:26:06.500Z,10.82
2022-07-25T06:28:33.546Z,11.13
2022-07-25T06:31:00.629Z,11.07
2022-07-25T06:33:30.888Z,10.98
2022-07-25T06:36:01.357Z,11.32
2022-07-25T06:38:28.459Z,11.07
2022-07-25T06:40:59.783Z,10.65
2022-07-25T06:43:26.857Z,10.38
2022-07-25T06:45:54.712Z,10.02
2022-07-25T06:48:23.939Z,10.65
2022-07-25T06:50:51.689Z,10.63
2022-07-25T06:53:18.824Z,9.90
2022-07-25T06:55:45.918Z,9.13
2022-07-25T06:58:13.002Z,9.35
2022-07-25T07:00:40.642Z,9.68
2022-07-25T07:03:28.249Z,8.98
2022-07-25T07:05:55.516Z,8.20
2022-07-25T07:08:23.830Z,8.23
2022-07-25T07:10:53.223Z,8.30
2022-07-25T07:13:24.463Z,8.48
2022-07-25T07:15:53.460Z,8.00
2022-07-25T07:18:22.000Z,8.38
2022-07-25T07:20:49.406Z,8.40
2022-07-25T07:23:20.617Z,8.10
2022-07-25T07:25:47.779Z,8.07
2022-07-25T07:28:21.012Z,9.40
2022-07-25T07:33:40.508Z,9.02
2022-07-25T07:36:10.741Z,9.05
2022-07-25T07:38:37.870Z,9.18
2022-07-25T07:41:05.029Z,9.25
2022-07-25T07:43:34.310Z,9.32
2022-07-25T07:46:01.962Z,9.23
2022-07-25T07:48:33.469Z,10.10
2022-07-25T07:51:02.083Z,9.48
2022-07-25T07:53:56.892Z,9.35
2022-07-25T07:56:24.204Z,9.35
2022-07-25T07:58:51.353Z,9.85
2022-07-25T08:01:18.739Z,9.38
2022-07-25T08:03:46.035Z,10.98
2022-07-25T08:06:13.199Z,11.93
2022-07-25T08:09:05.428Z,10.70
2022-07-25T08:11:32.677Z,10.13
2022-07-25T08:14:25.230Z,10.43
2022-07-25T08:16:52.947Z,8.35
2022-07-25T08:19:21.025Z,8.20
2022-07-25T08:22:11.165Z,7.10
2022-07-25T08:24:38.313Z,7.72
2022-07-25T08:27:05.464Z,7.43
2022-07-25T08:29:32.553Z,6.70
2022-07-25T08:31:59.698Z,7.07
2022-07-25T08:34:26.880Z,6.97
2022-07-25T08:36:54.822Z,7.40
2022-07-25T08:39:22.035Z,7.45
2022-07-25T08:41:50.144Z,7.28
2022-07-25T08:44:18.711Z,7.50
2022-07-25T08:46:46.360Z,7.47
2022-07-25T08:49:13.717Z,7.80
2022-07-25T08:51:41.395Z,7.22
2022-07-25T08:54:09.621Z,7.38
2022-07-25T08:56:36.971Z,7.75
2022-07-25T08:59:04.303Z,8.25
2022-07-25T09:01:34.929Z,7.10
2022-07-25T09:04:04.126Z,7.38
2022-07-25T09:06:32.530Z,6.38
2022-07-25T09:09:00.647Z,6.38
2022-07-25T09:11:34.943Z,7.85
2022-07-25T09:14:23.025Z,7.18
2022-07-25T09:16:50.495Z,7.38
2022-07-25T09:19:24.083Z,8.23
2022-07-25T09:22:10.309Z,7.95
2022-07-25T09:24:44.987Z,6.20
2022-07-25T09:27:13.050Z,5.40
2022-07-25T09:29:44.989Z,5.25
2022-07-25T09:32:20.555Z,4.40
2022-07-25T09:34:50.351Z,5.05
2022-07-25T09:37:20.415Z,3.92
2022-07-25T09:39:52.696Z,2.90
2022-07-25T09:42:27.599Z,2.30
2022-07-25T09:45:21.138Z,2.35
2022-07-25T09:48:01.132Z,2.05
2022-07-25T09:50:31.299Z,2.50
2022-07-25T09:53:02.300Z,1.98
2022-07-25T09:55:30.962Z,2.03
2022-07-25T09:57:58.146Z,2.40
2022-07-25T10:00:28.836Z,2.10
2022-07-25T10:02:55.988Z,1.90
2022-07-25T10:05:47.225Z,1.80
2022-07-25T10:08:14.770Z,1.83
2022-07-25T10:10:42.688Z,1.77
2022-07-25T10:13:17.711Z,2.17
2022-07-25T10:15:52.537Z,2.15
2022-07-25T10:18:29.548Z,2.17
2022-07-25T10:21:26.181Z,2.53
2022-07-25T10:24:15.770Z,2.30
2022-07-25T10:26:55.464Z,2.65
2022-07-25T10:29:33.741Z,2.20
2022-07-25T10:32:10.691Z,2.20
2022-07-25T10:34:39.464Z,2.05
2022-07-25T10:37:16.410Z,1.90
2022-07-25T10:39:45.913Z,2.10
2022-07-25T10:42:20.776Z,1.60
2022-07-25T10:44:51.241Z,1.75
2022-07-25T10:47:18.913Z,1.35
2022-07-25T10:50:13.840Z,1.20
2022-07-25T10:52:46.158Z,1.30
2022-07-25T10:55:23.699Z,1.00
2022-07-25T10:58:17.897Z,1.27
2022-07-25T11:00:45.389Z,1.00
2022-07-25T11:03:18.116Z,1.30
2022-07-25T11:05:49.069Z,1.42
2022-07-25T11:08:21.978Z,1.08
2022-07-25T11:10:53.365Z,1.10
2022-07-25T11:13:20.686Z,1.20
2022-07-25T11:15:48.445Z,1.20
2022-07-25T11:18:15.608Z,1.52
2022-07-25T11:20:42.694Z,1.70
2022-07-25T11:23:12.580Z,2.05
2022-07-25T11:25:42.286Z,1.40
2022-07-25T11:28:09.544Z,1.50
2022-07-25T11:30:36.825Z,1.52
2022-07-25T11:33:04.951Z,1.95
2022-07-25T11:35:33.481Z,1.90
2022-07-25T11:38:02.963Z,1.52
2022-07-25T11:40:32.657Z,2.00
2022-07-25T11:43:00.092Z,2.05
2022-07-25T11:45:30.978Z,1.80
2022-07-25T11:48:07.987Z,1.88
2022-07-25T11:50:37.872Z,1.77
2022-07-25T11:53:08.781Z,2.22
2022-07-25T11:55:42.328Z,1.90
2022-07-25T11:58:12.889Z,2.13
2022-07-25T12:00:46.255Z,1.90
2022-07-25T12:03:20.960Z,2.05
2022-07-25T12:05:49.354Z,1.80
2022-07-25T12:08:23.072Z,1.80
2022-07-25T12:10:54.928Z,1.73
2022-07-25T12:13:28.656Z,1.80
2022-07-25T12:16:00.101Z,2.42
2022-07-25T12:18:27.898Z,2.13
2022-07-25T12:20:54.983Z,1.85
2022-07-25T12:23:24.183Z,1.80
2022-07-25T12:25:51.659Z,1.80
2022-07-25T12:28:18.793Z,1.98
2022-07-25T12:30:47.078Z,1.80
2022-07-25T12:33:15.177Z,1.50
2022-07-25T12:35:43.944Z,1.77
2022-07-25T12:38:11.566Z,1.50
2022-07-25T12:40:38.895Z,1.20
2022-07-25T12:43:06.224Z,1.40
2022-07-25T12:45:35.458Z,1.65
2022-07-25T12:48:02.728Z,1.55
2022-07-25T12:50:29.988Z,1.67
2022-07-25T12:52:57.171Z,1.65
2022-07-25T12:55:24.330Z,1.40
2022-07-25T12:57:51.702Z,1.73
2022-07-25T13:00:22.333Z,1.55
2022-07-25T13:02:52.073Z,1.50
2022-07-25T13:05:20.133Z,1.58
2022-07-25T13:07:49.118Z,1.40
2022-07-25T13:10:17.110Z,1.80
2022-07-25T13:12:44.560Z,1.90
2022-07-25T13:15:11.922Z,1.60
2022-07-25T13:17:40.454Z,1.60
2022-07-25T13:20:10.152Z,1.52
2022-07-25T13:22:37.610Z,1.70
2022-07-25T13:25:05.513Z,1.77
2022-07-25T13:27:32.964Z,1.60
2022-07-25T13:30:00.226Z,1.88
2022-07-25T13:32:28.385Z,1.58
2022-07-25T13:34:55.665Z,1.70
2022-07-25T13:37:22.940Z,1.80
2022-07-25T13:39:50.120Z,2.20
2022-07-25T13:42:17.510Z,1.70
2022-07-25T13:44:44.679Z,2.08
2022-07-25T13:47:11.871Z,1.50
2022-07-25T13:49:39.145Z,1.77
2022-07-25T13:52:06.773Z,2.10
2022-07-25T13:54:34.107Z,2.13
2022-07-25T13:57:03.024Z,2.00
2022-07-25T13:59:30.603Z,2.10
2022-07-25T14:01:58.142Z,2.17
2022-07-25T14:04:25.463Z,2.15
2022-07-25T14:06:53.092Z,1.90
2022-07-25T14:09:21.658Z,2.22
2022-07-25T14:11:49.404Z,2.03
2022-07-25T14:14:17.139Z,2.10
2022-07-25T14:16:44.559Z,2.13
2022-07-25T14:19:13.826Z,2.15
2022-07-25T14:21:40.942Z,2.20
2022-07-25T14:24:11.263Z,2.15
2022-07-25T14:26:38.471Z,2.10
2022-07-25T14:29:11.966Z,2.22
2022-07-25T14:31:40.884Z,2.80
2022-07-25T14:34:08.550Z,2.22
2022-07-25T14:36:35.712Z,2.33
2022-07-25T14:39:04.660Z,2.60
2022-07-25T14:41:32.104Z,3.03
2022-07-25T14:43:59.733Z,2.58
2022-07-25T14:46:26.946Z,2.50
2022-07-25T14:48:54.255Z,2.70
2022-07-25T14:51:21.766Z,2.42
2022-07-25T14:53:53.137Z,2.70
2022-07-25T14:56:20.677Z,1.95
2022-07-25T14:58:51.602Z,2.38
2022-07-25T15:01:20.944Z,2.25
2022-07-25T15:03:48.634Z,1.98
2022-07-25T15:06:18.271Z,2.08
2022-07-25T15:08:45.436Z,1.67
2022-07-25T15:11:12.716Z,2.15
2022-07-25T15:13:39.841Z,2.20
2022-07-25T15:16:07.197Z,2.05
2022-07-25T15:18:52.129Z,2.10
2022-07-25T15:21:21.553Z,2.30
2022-07-25T15:23:52.586Z,1.95
2022-07-25T15:26:20.448Z,1.90
2022-07-25T15:28:47.688Z,2.13
2022-07-25T15:31:14.834Z,1.90
2022-07-25T15:33:42.016Z,2.15
2022-07-25T15:36:09.871Z,2.05
2022-07-25T15:38:37.864Z,2.08
2022-07-25T15:41:05.610Z,2.30
2022-07-25T15:43:33.378Z,2.38
2022-07-25T15:46:00.518Z,1.98
2022-07-25T15:48:29.138Z,2.25
2022-07-25T15:51:01.581Z,2.28
2022-07-25T15:53:29.225Z,2.00
2022-07-25T15:55:56.399Z,2.20
2022-07-25T15:58:23.884Z,2.00
2022-07-25T16:00:51.390Z,1.77
2022-07-25T16:03:18.621Z,2.13
2022-07-25T16:05:45.785Z,2.15
2022-07-25T16:08:13.014Z,2.22
2022-07-25T16:10:40.132Z,2.03
2022-07-25T16:13:07.608Z,1.95
2022-07-25T16:15:35.017Z,2.10
2022-07-25T16:18:03.111Z,1.75
2022-07-25T16:20:32.393Z,1.67
2022-07-25T16:23:00.618Z,1.83
2022-07-25T16:25:29.450Z,1.60
2022-07-25T16:27:58.472Z,1.50
2022-07-25T16:30:26.301Z,1.55
2022-07-25T16:32:53.617Z,1.50
2022-07-25T16:35:21.103Z,1.63
2022-07-25T16:37:48.203Z,1.55
2022-07-25T16:40:15.557Z,1.63
2022-07-25T16:42:44.065Z,1.60
2022-07-25T16:45:11.881Z,1.50
2022-07-25T16:47:40.924Z,1.58
2022-07-25T16:50:08.635Z,1.50
2022-07-25T16:52:35.817Z,1.45
2022-07-25T16:55:03.090Z,1.15
2022-07-25T16:57:32.081Z,1.50
2022-07-25T17:00:00.860Z,1.73
2022-07-25T17:02:29.841Z,1.15
2022-07-25T17:04:58.102Z,1.45
2022-07-25T17:07:26.008Z,1.55
2022-07-25T17:09:53.517Z,1.65
2022-07-25T17:12:21.172Z,2.03
2022-07-25T17:14:48.390Z,1.70
2022-07-25T17:17:15.478Z,1.48
2022-07-25T17:19:42.981Z,1.25
2022-07-25T17:22:10.519Z,1.40
2022-07-25T17:24:39.373Z,1.50
2022-07-25T17:27:12.000Z,1.60
2022-07-25T17:29:40.372Z,1.52
2022-07-25T17:32:07.596Z,1.60
2022-07-25T17:34:34.963Z,1.30
2022-07-25T17:37:02.874Z,1.50
2022-07-25T17:39:30.867Z,1.48
2022-07-25T17:41:58.530Z,1.77
2022-07-25T17:44:27.358Z,1.30
2022-07-25T17:46:55.268Z,1.38
2022-07-25T17:49:44.895Z,1.30
2022-07-25T17:52:16.010Z,1.35
2022-07-25T17:54:43.832Z,1.27
2022-07-25T17:57:12.184Z,1.48
2022-07-25T17:59:42.963Z,1.55
2022-07-25T18:02:28.843Z,1.55
2022-07-25T18:05:05.068Z,1.33
2022-07-25T18:07:32.271Z,1.40
2022-07-25T18:10:02.520Z,1.40
2022-07-25T18:12:37.154Z,1.40
2022-07-25T18:15:05.324Z,1.48
2022-07-25T18:17:32.477Z,1.70
2022-07-25T18:19:59.754Z,1.33
2022-07-25T18:22:26.927Z,1.20
2022-07-25T18:24:54.287Z,1.35
2022-07-25T18:27:21.561Z,1.25
2022-07-25T18:29:48.639Z,1.23
2022-07-25T18:32:17.001Z,2.10
2022-07-25T18:34:46.650Z,1.50
2022-07-25T18:37:14.027Z,1.70
2022-07-25T18:39:42.149Z,1.67
2022-07-25T18:42:09.386Z,1.48
2022-07-25T18:44:36.796Z,1.45
2022-07-25T18:47:06.902Z,1.48
2022-07-25T18:49:34.018Z,1.50
2022-07-25T18:52:08.138Z,1.45
2022-07-25T18:54:37.590Z,1.35
2022-07-25T18:57:05.788Z,1.10
2022-07-25T18:59:32.825Z,1.35
2022-07-25T19:02:00.173Z,1.27
2022-07-25T19:04:27.601Z,1.58
2022-07-25T19:06:54.835Z,1.45
2022-07-25T19:09:21.970Z,1.20
2022-07-25T19:11:49.420Z,1.88
2022-07-25T19:14:16.571Z,1.98
2022-07-25T19:16:43.918Z,1.73
2022-07-25T19:19:11.065Z,1.38
2022-07-25T19:21:38.938Z,1.75
2022-07-25T19:24:06.737Z,1.50
2022-07-25T19:26:34.013Z,1.67
2022-07-25T19:29:01.395Z,1.75
2022-07-25T19:31:28.622Z,1.48
2022-07-25T19:33:55.871Z,1.85
2022-07-25T19:36:22.980Z,1.83
2022-07-25T19:38:52.044Z,2.00
2022-07-25T19:41:19.224Z,1.73
2022-07-25T19:43:46.363Z,2.95
2022-07-25T19:46:22.129Z,2.00
2022-07-25T19:48:50.204Z,1.88
2022-07-25T19:51:17.372Z,1.92
2022-07-25T19:53:45.911Z,1.55
2022-07-25T19:56:13.081Z,2.13
2022-07-25T19:58:41.247Z,1.73
2022-07-25T20:01:12.092Z,1.70
2022-07-25T20:03:42.177Z,1.90
2022-07-25T20:06:12.098Z,1.70
2022-07-25T20:08:40.173Z,2.35
2022-07-25T20:11:07.917Z,2.03
2022-07-25T20:13:35.654Z,1.92
2022-07-25T20:16:03.890Z,2.28
2022-07-25T20:18:32.499Z,2.05
2022-07-25T20:21:00.041Z,1.65
2022-07-25T20:23:27.517Z,2.22
2022-07-25T20:25:54.971Z,1.80
2022-07-25T20:28:22.312Z,1.77
2022-07-25T20:30:50.757Z,2.22
2022-07-25T20:33:23.784Z,2.17
2022-07-25T20:35:50.833Z,2.00
2022-07-25T20:38:17.974Z,2.22
2022-07-25T20:40:49.580Z,2.00
2022-07-25T20:43:19.346Z,2.20
2022-07-25T20:45:47.560Z,2.28
2022-07-25T20:48:17.234Z,2.17
2022-07-25T20:50:44.789Z,2.13
2022-07-25T20:53:12.436Z,2.00
2022-07-25T20:55:41.765Z,2.15
2022-07-25T20:58:11.676Z,2.30
2022-07-25T21:00:40.766Z,2.33
2022-07-25T21:03:08.397Z,2.25
2022-07-25T21:05:37.773Z,2.55
2022-07-25T21:08:06.027Z,2.35
2022-07-25T21:10:33.309Z,2.08
2022-07-25T21:13:01.033Z,2.20
2022-07-25T21:15:28.242Z,2.20
2022-07-25T21:17:58.612Z,2.17
2022-07-25T21:20:25.924Z,2.70
2022-07-25T21:22:55.356Z,2.30
2022-07-25T21:25:22.729Z,2.30
2022-07-25T21:27:52.111Z,2.25
2022-07-25T21:30:19.691Z,2.42
2022-07-25T21:32:49.382Z,2.30
2022-07-25T21:35:18.066Z,2.20
2022-07-25T21:37:45.254Z,2.33
2022-07-25T21:40:12.587Z,2.72
2022-07-25T21:42:39.846Z,2.33
2022-07-25T21:45:07.784Z,2.10
2022-07-25T21:47:34.976Z,3.03
2022-07-25T21:50:25.104Z,2.80
2022-07-25T21:52:53.593Z,2.92
2022-07-25T21:55:22.299Z,2.30
2022-07-25T21:57:51.425Z,2.22
2022-07-25T22:00:19.466Z,2.90
2022-07-25T22:02:47.404Z,2.45
2022-07-25T22:05:16.259Z,2.50
2022-07-25T22:07:48.318Z,2.15
2022-07-25T22:10:17.966Z,2.17
2022-07-25T22:12:46.589Z,2.40
2022-07-25T22:15:14.442Z,2.25
2022-07-25T22:17:48.395Z,2.42
2022-07-25T22:20:20.810Z,2.47
2022-07-25T22:22:48.750Z,2.35
2022-07-25T22:25:17.121Z,2.60
2022-07-25T22:27:50.165Z,2.05
2022-07-25T22:30:20.513Z,2.72
2022-07-25T22:33:05.624Z,2.20
2022-07-25T22:35:32.692Z,2.95
2022-07-25T22:38:00.843Z,2.47
2022-07-25T22:40:27.947Z,2.70
2022-07-25T22:42:55.130Z,2.70
2022-07-25T22:45:25.260Z,2.58
2022-07-25T22:47:52.436Z,2.70
2022-07-25T22:50:19.689Z,2.58
2022-07-25T22:52:46.880Z,2.55
2022-07-25T22:55:16.459Z,2.50
2022-07-25T22:58:59.232Z,2.90
2022-07-25T23:01:26.602Z,2.40
2022-07-25T23:03:53.830Z,2.95
2022-07-25T23:06:21.973Z,2.47
2022-07-25T23:08:49.747Z,2.97
2022-07-25T23:11:18.006Z,2.50
2022-07-25T23:13:45.303Z,2.83
2022-07-25T23:16:12.882Z,2.80
2022-07-25T23:18:40.263Z,2.55
2022-07-25T23:21:15.029Z,2.63
2022-07-25T23:23:42.291Z,2.60
2022-07-25T23:26:09.691Z,2.30
2022-07-25T23:28:37.131Z,2.38
2022-07-25T23:31:04.839Z,2.67
2022-07-25T23:33:32.274Z,2.92
2022-07-25T23:35:59.692Z,2.75
2022-07-25T23:38:29.472Z,2.67
2022-07-25T23:40:56.847Z,2.90
2022-07-25T23:43:37.022Z,2.50
2022-07-25T23:46:20.320Z,2.53
2022-07-25T23:48:59.295Z,2.63
2022-07-25T23:51:26.641Z,2.30
2022-07-25T23:53:53.879Z,2.55
2022-07-25T23:56:21.465Z,2.50
2022-07-25T23:58:52.206Z,2.42
